Terminal Aerodrome Forecast
Issued by NWS Pocatello, ID

Home | Current Version | Previous Version | Text Only | Print | Product List | Glossary On
Versions: 1 2 3 4 5 6 7 8 9 10 11 12 13 14 15
622
FTUS45 KPIH 282326
TAFBYI
TAF
KBYI 282326Z 2900/2924 29010G20KT P6SM FEW120
     FM290300 VRB06KT P6SM SKC
     FM291600 27010G20KT P6SM SCT080=

USA.gov is the U.S. government's official web portal to all federal, state and local government web resources and services.